sensor_id;sensor_type;location;lat;lon;timestamp;P1;durP1;ratioP1;P2;durP2;ratioP2
29776;SDS011;16677;52.224;7.484;2023-09-18T00:05:43;12.00;;;10.77;;
29776;SDS011;16677;52.224;7.484;2023-09-18T00:08:17;12.47;;;10.63;;
29776;SDS011;16677;52.224;7.484;2023-09-18T00:11:16;11.60;;;10.30;;
29776;SDS011;16677;52.224;7.484;2023-09-18T00:13:45;11.23;;;10.27;;
29776;SDS011;16677;52.224;7.484;2023-09-18T00:16:18;12.00;;;10.83;;
29776;SDS011;16677;52.224;7.484;2023-09-18T00:19:13;11.23;;;10.23;;
29776;SDS011;16677;52.224;7.484;2023-09-18T00:21:40;10.13;;;9.23;;
29776;SDS011;16677;52.224;7.484;2023-09-18T00:24:07;11.00;;;9.90;;
29776;SDS011;16677;52.224;7.484;2023-09-18T00:26:43;14.07;;;10.40;;
29776;SDS011;16677;52.224;7.484;2023-09-18T00:29:13;12.17;;;9.90;;
29776;SDS011;16677;52.224;7.484;2023-09-18T00:31:41;11.17;;;10.13;;
29776;SDS011;16677;52.224;7.484;2023-09-18T00:34:11;10.97;;;9.57;;
29776;SDS011;16677;52.224;7.484;2023-09-18T00:36:38;12.37;;;9.97;;
29776;SDS011;16677;52.224;7.484;2023-09-18T00:39:05;11.53;;;10.43;;
29776;SDS011;16677;52.224;7.484;2023-09-18T00:41:35;12.00;;;9.60;;
29776;SDS011;16677;52.224;7.484;2023-09-18T00:44:03;10.63;;;9.60;;
29776;SDS011;16677;52.224;7.484;2023-09-18T00:46:34;10.67;;;9.67;;
29776;SDS011;16677;52.224;7.484;2023-09-18T00:49:06;10.70;;;9.70;;
29776;SDS011;16677;52.224;7.484;2023-09-18T00:51:39;10.63;;;9.60;;
29776;SDS011;16677;52.224;7.484;2023-09-18T00:54:07;11.90;;;9.70;;
29776;SDS011;16677;52.224;7.484;2023-09-18T00:56:37;12.10;;;9.03;;
29776;SDS011;16677;52.224;7.484;2023-09-18T00:59:04;10.67;;;8.70;;
29776;SDS011;16677;52.224;7.484;2023-09-18T01:01:43;10.30;;;9.27;;
29776;SDS011;16677;52.224;7.484;2023-09-18T01:04:15;10.03;;;9.03;;
29776;SDS011;16677;52.224;7.484;2023-09-18T01:06:46;10.53;;;9.23;;
29776;SDS011;16677;52.224;7.484;2023-09-18T01:09:18;10.77;;;9.40;;
29776;SDS011;16677;52.224;7.484;2023-09-18T01:14:29;10.13;;;9.13;;
29776;SDS011;16677;52.224;7.484;2023-09-18T01:17:25;10.80;;;9.80;;
29776;SDS011;16677;52.224;7.484;2023-09-18T01:20:10;10.73;;;9.50;;
29776;SDS011;16677;52.224;7.484;2023-09-18T01:23:11;12.30;;;9.80;;
29776;SDS011;16677;52.224;7.484;2023-09-18T01:26:02;11.30;;;10.03;;
29776;SDS011;16677;52.224;7.484;2023-09-18T01:28:34;10.17;;;9.20;;
29776;SDS011;16677;52.224;7.484;2023-09-18T01:31:22;10.87;;;9.57;;
29776;SDS011;16677;52.224;7.484;2023-09-18T01:34:30;11.87;;;10.03;;
29776;SDS011;16677;52.224;7.484;2023-09-18T01:40:20;12.68;;;9.95;;
29776;SDS011;16677;52.224;7.484;2023-09-18T01:42:57;10.73;;;9.60;;
29776;SDS011;16677;52.224;7.484;2023-09-18T01:45:56;11.70;;;10.40;;
29776;SDS011;16677;52.224;7.484;2023-09-18T01:48:26;10.63;;;9.57;;
29776;SDS011;16677;52.224;7.484;2023-09-18T01:51:14;12.67;;;10.13;;
29776;SDS011;16677;52.224;7.484;2023-09-18T01:54:04;10.90;;;9.80;;
29776;SDS011;16677;52.224;7.484;2023-09-18T01:56:59;10.37;;;9.37;;
29776;SDS011;16677;52.224;7.484;2023-09-18T01:59:43;10.73;;;9.75;;
29776;SDS011;16677;52.224;7.484;2023-09-18T02:02:29;10.20;;;9.10;;
29776;SDS011;16677;52.224;7.484;2023-09-18T02:05:19;10.93;;;9.80;;
29776;SDS011;16677;52.224;7.484;2023-09-18T02:07:49;10.93;;;9.27;;
29776;SDS011;16677;52.224;7.484;2023-09-18T02:10:22;10.70;;;9.43;;
29776;SDS011;16677;52.224;7.484;2023-09-18T02:12:49;10.50;;;9.47;;
29776;SDS011;16677;52.224;7.484;2023-09-18T02:15:16;10.63;;;9.33;;
29776;SDS011;16677;52.224;7.484;2023-09-18T02:17:53;12.20;;;8.73;;
29776;SDS011;16677;52.224;7.484;2023-09-18T02:20:29;13.93;;;9.33;;
29776;SDS011;16677;52.224;7.484;2023-09-18T02:22:56;10.47;;;9.43;;
29776;SDS011;16677;52.224;7.484;2023-09-18T02:25:31;12.77;;;8.80;;
29776;SDS011;16677;52.224;7.484;2023-09-18T02:28:15;10.73;;;9.00;;
29776;SDS011;16677;52.224;7.484;2023-09-18T02:30:42;12.47;;;8.77;;
29776;SDS011;16677;52.224;7.484;2023-09-18T02:33:10;10.53;;;9.07;;
29776;SDS011;16677;52.224;7.484;2023-09-18T02:35:41;9.93;;;8.77;;
29776;SDS011;16677;52.224;7.484;2023-09-18T02:38:11;9.93;;;8.93;;
29776;SDS011;16677;52.224;7.484;2023-09-18T02:40:38;9.63;;;8.67;;
29776;SDS011;16677;52.224;7.484;2023-09-18T02:43:05;9.97;;;8.97;;
29776;SDS011;16677;52.224;7.484;2023-09-18T02:45:32;9.97;;;8.87;;
29776;SDS011;16677;52.224;7.484;2023-09-18T02:47:59;10.17;;;9.17;;
29776;SDS011;16677;52.224;7.484;2023-09-18T02:50:27;10.40;;;9.50;;
29776;SDS011;16677;52.224;7.484;2023-09-18T02:52:54;11.97;;;9.33;;
29776;SDS011;16677;52.224;7.484;2023-09-18T02:55:21;11.63;;;9.70;;
29776;SDS011;16677;52.224;7.484;2023-09-18T02:58:02;10.57;;;9.30;;
29776;SDS011;16677;52.224;7.484;2023-09-18T03:00:29;11.10;;;10.00;;
29776;SDS011;16677;52.224;7.484;2023-09-18T03:03:09;10.77;;;8.77;;
29776;SDS011;16677;52.224;7.484;2023-09-18T03:05:37;11.33;;;9.80;;
29776;SDS011;16677;52.224;7.484;2023-09-18T03:08:05;10.77;;;9.87;;
29776;SDS011;16677;52.224;7.484;2023-09-18T03:10:35;10.60;;;9.57;;
29776;SDS011;16677;52.224;7.484;2023-09-18T03:13:04;11.17;;;9.90;;
29776;SDS011;16677;52.224;7.484;2023-09-18T03:15:32;11.53;;;9.70;;
29776;SDS011;16677;52.224;7.484;2023-09-18T03:18:00;11.37;;;8.97;;
29776;SDS011;16677;52.224;7.484;2023-09-18T03:20:28;10.70;;;9.20;;
29776;SDS011;16677;52.224;7.484;2023-09-18T03:22:57;13.20;;;9.67;;
29776;SDS011;16677;52.224;7.484;2023-09-18T03:25:25;13.30;;;9.30;;
29776;SDS011;16677;52.224;7.484;2023-09-18T03:27:53;10.90;;;9.20;;
29776;SDS011;16677;52.224;7.484;2023-09-18T03:30:22;12.27;;;9.30;;
29776;SDS011;16677;52.224;7.484;2023-09-18T03:32:50;10.00;;;9.00;;
29776;SDS011;16677;52.224;7.484;2023-09-18T03:35:18;10.30;;;8.50;;
29776;SDS011;16677;52.224;7.484;2023-09-18T03:37:49;12.03;;;9.23;;
29776;SDS011;16677;52.224;7.484;2023-09-18T03:40:18;9.70;;;8.70;;
29776;SDS011;16677;52.224;7.484;2023-09-18T03:42:46;11.50;;;8.33;;
29776;SDS011;16677;52.224;7.484;2023-09-18T03:45:13;11.93;;;8.60;;
29776;SDS011;16677;52.224;7.484;2023-09-18T03:47:41;12.27;;;8.37;;
29776;SDS011;16677;52.224;7.484;2023-09-18T03:50:08;9.70;;;8.00;;
29776;SDS011;16677;52.224;7.484;2023-09-18T03:52:37;9.53;;;8.53;;
29776;SDS011;16677;52.224;7.484;2023-09-18T03:55:07;10.13;;;7.70;;
29776;SDS011;16677;52.224;7.484;2023-09-18T03:57:35;10.60;;;7.80;;
29776;SDS011;16677;52.224;7.484;2023-09-18T04:00:04;9.07;;;8.18;;
29776;SDS011;16677;52.224;7.484;2023-09-18T04:02:33;9.53;;;8.57;;
29776;SDS011;16677;52.224;7.484;2023-09-18T04:05:01;9.23;;;7.73;;
29776;SDS011;16677;52.224;7.484;2023-09-18T04:07:28;14.43;;;7.63;;
29776;SDS011;16677;52.224;7.484;2023-09-18T04:09:55;8.60;;;7.70;;
29776;SDS011;16677;52.224;7.484;2023-09-18T04:12:22;9.47;;;8.00;;
29776;SDS011;16677;52.224;7.484;2023-09-18T04:14:50;15.83;;;8.53;;
29776;SDS011;16677;52.224;7.484;2023-09-18T04:17:17;10.30;;;8.20;;
29776;SDS011;16677;52.224;7.484;2023-09-18T04:19:44;9.60;;;8.17;;
29776;SDS011;16677;52.224;7.484;2023-09-18T04:22:12;8.23;;;7.43;;
29776;SDS011;16677;52.224;7.484;2023-09-18T04:24:39;12.10;;;8.37;;
29776;SDS011;16677;52.224;7.484;2023-09-18T04:27:07;8.83;;;7.63;;
29776;SDS011;16677;52.224;7.484;2023-09-18T04:29:34;9.83;;;7.70;;
29776;SDS011;16677;52.224;7.484;2023-09-18T04:32:02;8.50;;;7.70;;
29776;SDS011;16677;52.224;7.484;2023-09-18T04:34:30;10.60;;;7.87;;
29776;SDS011;16677;52.224;7.484;2023-09-18T04:36:58;8.43;;;7.53;;
29776;SDS011;16677;52.224;7.484;2023-09-18T04:39:24;13.60;;;7.47;;
29776;SDS011;16677;52.224;7.484;2023-09-18T04:41:52;11.88;;;7.57;;
29776;SDS011;16677;52.224;7.484;2023-09-18T04:44:19;9.48;;;7.43;;
29776;SDS011;16677;52.224;7.484;2023-09-18T04:46:46;8.67;;;7.30;;
29776;SDS011;16677;52.224;7.484;2023-09-18T04:49:13;8.83;;;7.93;;
29776;SDS011;16677;52.224;7.484;2023-09-18T04:51:41;11.70;;;8.10;;
29776;SDS011;16677;52.224;7.484;2023-09-18T04:54:08;8.67;;;7.27;;
29776;SDS011;16677;52.224;7.484;2023-09-18T04:56:35;8.80;;;7.40;;
29776;SDS011;16677;52.224;7.484;2023-09-18T04:59:03;10.00;;;7.47;;
29776;SDS011;16677;52.224;7.484;2023-09-18T05:01:31;9.50;;;7.20;;
29776;SDS011;16677;52.224;7.484;2023-09-18T05:03:58;11.20;;;7.43;;
29776;SDS011;16677;52.224;7.484;2023-09-18T05:06:26;11.68;;;7.40;;
29776;SDS011;16677;52.224;7.484;2023-09-18T05:08:54;9.70;;;7.40;;
29776;SDS011;16677;52.224;7.484;2023-09-18T05:11:21;14.40;;;8.07;;
29776;SDS011;16677;52.224;7.484;2023-09-18T05:13:49;12.20;;;7.83;;
29776;SDS011;16677;52.224;7.484;2023-09-18T05:16:16;9.37;;;6.93;;
29776;SDS011;16677;52.224;7.484;2023-09-18T05:18:43;11.20;;;7.43;;
29776;SDS011;16677;52.224;7.484;2023-09-18T05:21:10;8.93;;;7.77;;
29776;SDS011;16677;52.224;7.484;2023-09-18T05:23:37;9.15;;;7.95;;
29776;SDS011;16677;52.224;7.484;2023-09-18T05:26:05;10.17;;;7.93;;
29776;SDS011;16677;52.224;7.484;2023-09-18T05:28:32;10.20;;;8.93;;
29776;SDS011;16677;52.224;7.484;2023-09-18T05:30:59;12.40;;;8.77;;
29776;SDS011;16677;52.224;7.484;2023-09-18T05:33:26;12.23;;;9.40;;
29776;SDS011;16677;52.224;7.484;2023-09-18T05:35:53;11.47;;;9.27;;
29776;SDS011;16677;52.224;7.484;2023-09-18T05:38:21;10.50;;;9.40;;
29776;SDS011;16677;52.224;7.484;2023-09-18T05:40:48;11.90;;;9.73;;
29776;SDS011;16677;52.224;7.484;2023-09-18T05:43:15;11.70;;;10.20;;
29776;SDS011;16677;52.224;7.484;2023-09-18T05:45:42;14.77;;;10.73;;
29776;SDS011;16677;52.224;7.484;2023-09-18T05:48:10;14.03;;;9.90;;
29776;SDS011;16677;52.224;7.484;2023-09-18T05:50:37;11.07;;;9.87;;
29776;SDS011;16677;52.224;7.484;2023-09-18T05:53:07;12.63;;;10.00;;
29776;SDS011;16677;52.224;7.484;2023-09-18T05:55:34;11.23;;;10.15;;
29776;SDS011;16677;52.224;7.484;2023-09-18T05:58:02;12.40;;;10.87;;
29776;SDS011;16677;52.224;7.484;2023-09-18T06:00:31;13.37;;;10.93;;
29776;SDS011;16677;52.224;7.484;2023-09-18T06:02:58;20.57;;;13.70;;
29776;SDS011;16677;52.224;7.484;2023-09-18T06:05:26;15.10;;;11.10;;
29776;SDS011;16677;52.224;7.484;2023-09-18T06:07:53;15.77;;;11.10;;
29776;SDS011;16677;52.224;7.484;2023-09-18T06:10:20;17.58;;;10.93;;
29776;SDS011;16677;52.224;7.484;2023-09-18T06:12:47;13.57;;;10.27;;
29776;SDS011;16677;52.224;7.484;2023-09-18T06:15:14;12.43;;;10.67;;
29776;SDS011;16677;52.224;7.484;2023-09-18T06:17:42;12.10;;;10.20;;
29776;SDS011;16677;52.224;7.484;2023-09-18T06:20:10;12.27;;;10.17;;
29776;SDS011;16677;52.224;7.484;2023-09-18T06:22:42;11.43;;;10.17;;
29776;SDS011;16677;52.224;7.484;2023-09-18T06:25:09;15.27;;;10.40;;
29776;SDS011;16677;52.224;7.484;2023-09-18T06:27:37;12.63;;;9.47;;
29776;SDS011;16677;52.224;7.484;2023-09-18T06:30:05;11.40;;;9.90;;
29776;SDS011;16677;52.224;7.484;2023-09-18T06:32:33;12.90;;;10.70;;
29776;SDS011;16677;52.224;7.484;2023-09-18T06:35:00;10.95;;;9.90;;
29776;SDS011;16677;52.224;7.484;2023-09-18T06:37:27;12.30;;;9.57;;
29776;SDS011;16677;52.224;7.484;2023-09-18T06:39:55;13.93;;;9.70;;
29776;SDS011;16677;52.224;7.484;2023-09-18T06:42:23;10.45;;;9.35;;
29776;SDS011;16677;52.224;7.484;2023-09-18T06:44:52;17.57;;;9.60;;
29776;SDS011;16677;52.224;7.484;2023-09-18T06:47:19;10.53;;;9.10;;
29776;SDS011;16677;52.224;7.484;2023-09-18T06:49:47;12.48;;;10.65;;
29776;SDS011;16677;52.224;7.484;2023-09-18T06:52:15;11.27;;;9.60;;
29776;SDS011;16677;52.224;7.484;2023-09-18T06:54:45;12.35;;;8.80;;
29776;SDS011;16677;52.224;7.484;2023-09-18T06:57:12;9.13;;;8.23;;
29776;SDS011;16677;52.224;7.484;2023-09-18T06:59:39;12.63;;;8.80;;
29776;SDS011;16677;52.224;7.484;2023-09-18T07:02:06;8.83;;;7.90;;
29776;SDS011;16677;52.224;7.484;2023-09-18T07:04:33;11.03;;;8.67;;
29776;SDS011;16677;52.224;7.484;2023-09-18T07:07:00;10.38;;;7.90;;
29776;SDS011;16677;52.224;7.484;2023-09-18T07:09:28;11.80;;;7.87;;
29776;SDS011;16677;52.224;7.484;2023-09-18T07:12:02;12.73;;;7.80;;
29776;SDS011;16677;52.224;7.484;2023-09-18T07:14:30;9.17;;;8.13;;
29776;SDS011;16677;52.224;7.484;2023-09-18T07:16:57;10.85;;;8.70;;
29776;SDS011;16677;52.224;7.484;2023-09-18T07:19:25;9.60;;;7.67;;
29776;SDS011;16677;52.224;7.484;2023-09-18T07:21:52;10.03;;;8.23;;
29776;SDS011;16677;52.224;7.484;2023-09-18T07:24:19;9.00;;;6.90;;
29776;SDS011;16677;52.224;7.484;2023-09-18T07:26:47;9.90;;;6.97;;
29776;SDS011;16677;52.224;7.484;2023-09-18T07:29:15;10.97;;;6.73;;
29776;SDS011;16677;52.224;7.484;2023-09-18T07:31:43;8.50;;;6.80;;
29776;SDS011;16677;52.224;7.484;2023-09-18T07:34:10;10.87;;;6.90;;
29776;SDS011;16677;52.224;7.484;2023-09-18T07:36:39;11.10;;;6.33;;
29776;SDS011;16677;52.224;7.484;2023-09-18T07:39:07;9.83;;;6.13;;
29776;SDS011;16677;52.224;7.484;2023-09-18T07:41:34;8.13;;;6.30;;
29776;SDS011;16677;52.224;7.484;2023-09-18T07:44:01;14.85;;;6.07;;
29776;SDS011;16677;52.224;7.484;2023-09-18T07:46:28;10.57;;;5.93;;
29776;SDS011;16677;52.224;7.484;2023-09-18T07:48:55;7.73;;;5.33;;
29776;SDS011;16677;52.224;7.484;2023-09-18T07:51:23;6.40;;;5.00;;
29776;SDS011;16677;52.224;7.484;2023-09-18T07:53:50;9.30;;;5.63;;
29776;SDS011;16677;52.224;7.484;2023-09-18T07:56:17;9.95;;;5.60;;
29776;SDS011;16677;52.224;7.484;2023-09-18T07:58:45;8.87;;;5.47;;
29776;SDS011;16677;52.224;7.484;2023-09-18T08:01:13;6.68;;;4.60;;
29776;SDS011;16677;52.224;7.484;2023-09-18T08:03:42;11.90;;;5.00;;
29776;SDS011;16677;52.224;7.484;2023-09-18T08:06:09;6.68;;;4.65;;
29776;SDS011;16677;52.224;7.484;2023-09-18T08:08:38;6.18;;;4.28;;
29776;SDS011;16677;52.224;7.484;2023-09-18T08:11:09;7.65;;;4.55;;
29776;SDS011;16677;52.224;7.484;2023-09-18T08:13:36;7.25;;;4.78;;
29776;SDS011;16677;52.224;7.484;2023-09-18T08:16:06;6.47;;;4.15;;
29776;SDS011;16677;52.224;7.484;2023-09-18T08:18:34;9.70;;;4.45;;
29776;SDS011;16677;52.224;7.484;2023-09-18T08:21:09;5.30;;;3.90;;
29776;SDS011;16677;52.224;7.484;2023-09-18T08:23:36;7.57;;;3.70;;
29776;SDS011;16677;52.224;7.484;2023-09-18T08:26:04;8.15;;;4.05;;
29776;SDS011;16677;52.224;7.484;2023-09-18T08:28:31;7.07;;;3.72;;
29776;SDS011;16677;52.224;7.484;2023-09-18T08:30:59;6.40;;;3.40;;
29776;SDS011;16677;52.224;7.484;2023-09-18T08:33:27;6.00;;;3.50;;
29776;SDS011;16677;52.224;7.484;2023-09-18T08:35:55;5.00;;;3.60;;
29776;SDS011;16677;52.224;7.484;2023-09-18T08:38:22;8.20;;;3.20;;
29776;SDS011;16677;52.224;7.484;2023-09-18T08:40:49;7.18;;;3.60;;
29776;SDS011;16677;52.224;7.484;2023-09-18T08:43:18;6.07;;;3.60;;
29776;SDS011;16677;52.224;7.484;2023-09-18T08:48:15;7.60;;;3.40;;
29776;SDS011;16677;52.224;7.484;2023-09-18T08:50:43;5.38;;;3.40;;
29776;SDS011;16677;52.224;7.484;2023-09-18T08:53:12;7.15;;;3.53;;
29776;SDS011;16677;52.224;7.484;2023-09-18T08:55:39;5.40;;;3.05;;
29776;SDS011;16677;52.224;7.484;2023-09-18T08:58:07;6.50;;;3.45;;
29776;SDS011;16677;52.224;7.484;2023-09-18T09:00:36;4.75;;;3.20;;
29776;SDS011;16677;52.224;7.484;2023-09-18T09:03:04;8.02;;;4.10;;
29776;SDS011;16677;52.224;7.484;2023-09-18T09:05:31;6.32;;;3.33;;
29776;SDS011;16677;52.224;7.484;2023-09-18T09:07:59;3.83;;;3.10;;
29776;SDS011;16677;52.224;7.484;2023-09-18T09:10:27;5.22;;;3.22;;
29776;SDS011;16677;52.224;7.484;2023-09-18T09:12:55;3.95;;;2.78;;
29776;SDS011;16677;52.224;7.484;2023-09-18T09:15:34;6.25;;;2.90;;
29776;SDS011;16677;52.224;7.484;2023-09-18T09:18:14;3.85;;;2.65;;
29776;SDS011;16677;52.224;7.484;2023-09-18T09:23:24;6.53;;;2.63;;
29776;SDS011;16677;52.224;7.484;2023-09-18T09:25:52;4.93;;;2.45;;
29776;SDS011;16677;52.224;7.484;2023-09-18T09:28:30;8.55;;;3.00;;
29776;SDS011;16677;52.224;7.484;2023-09-18T09:31:00;4.93;;;2.80;;
29776;SDS011;16677;52.224;7.484;2023-09-18T09:33:32;6.40;;;2.75;;
29776;SDS011;16677;52.224;7.484;2023-09-18T09:35:59;5.57;;;3.03;;
29776;SDS011;16677;52.224;7.484;2023-09-18T09:38:30;4.18;;;2.20;;
29776;SDS011;16677;52.224;7.484;2023-09-18T09:41:00;6.50;;;2.50;;
29776;SDS011;16677;52.224;7.484;2023-09-18T09:43:30;6.78;;;2.60;;
29776;SDS011;16677;52.224;7.484;2023-09-18T09:46:00;4.97;;;2.67;;
29776;SDS011;16677;52.224;7.484;2023-09-18T09:48:28;4.35;;;2.28;;
29776;SDS011;16677;52.224;7.484;2023-09-18T09:51:00;2.92;;;1.92;;
29776;SDS011;16677;52.224;7.484;2023-09-18T09:53:41;5.25;;;2.17;;
29776;SDS011;16677;52.224;7.484;2023-09-18T09:56:14;4.07;;;2.10;;
29776;SDS011;16677;52.224;7.484;2023-09-18T09:58:41;3.22;;;2.08;;
29776;SDS011;16677;52.224;7.484;2023-09-18T10:01:11;3.50;;;1.95;;
29776;SDS011;16677;52.224;7.484;2023-09-18T10:03:44;4.70;;;1.90;;
29776;SDS011;16677;52.224;7.484;2023-09-18T10:06:13;3.45;;;2.08;;
29776;SDS011;16677;52.224;7.484;2023-09-18T10:08:40;2.70;;;2.03;;
29776;SDS011;16677;52.224;7.484;2023-09-18T10:11:09;3.80;;;2.03;;
29776;SDS011;16677;52.224;7.484;2023-09-18T10:16:26;4.30;;;1.95;;
29776;SDS011;16677;52.224;7.484;2023-09-18T10:22:01;3.53;;;1.85;;
29776;SDS011;16677;52.224;7.484;2023-09-18T10:24:44;4.38;;;2.05;;
29776;SDS011;16677;52.224;7.484;2023-09-18T10:27:13;4.07;;;2.00;;
29776;SDS011;16677;52.224;7.484;2023-09-18T10:29:42;3.15;;;1.95;;
29776;SDS011;16677;52.224;7.484;2023-09-18T10:32:10;5.95;;;2.25;;
29776;SDS011;16677;52.224;7.484;2023-09-18T10:34:39;3.42;;;2.15;;
29776;SDS011;16677;52.224;7.484;2023-09-18T10:37:09;4.32;;;2.00;;
29776;SDS011;16677;52.224;7.484;2023-09-18T10:39:38;5.00;;;2.22;;
29776;SDS011;16677;52.224;7.484;2023-09-18T10:42:08;5.27;;;2.27;;
29776;SDS011;16677;52.224;7.484;2023-09-18T10:44:36;2.93;;;2.10;;
29776;SDS011;16677;52.224;7.484;2023-09-18T10:47:07;6.10;;;2.55;;
29776;SDS011;16677;52.224;7.484;2023-09-18T10:49:36;4.13;;;2.22;;
29776;SDS011;16677;52.224;7.484;2023-09-18T10:52:04;4.20;;;2.42;;
29776;SDS011;16677;52.224;7.484;2023-09-18T10:54:32;4.70;;;2.03;;
29776;SDS011;16677;52.224;7.484;2023-09-18T10:57:00;4.22;;;2.28;;
29776;SDS011;16677;52.224;7.484;2023-09-18T10:59:28;4.85;;;2.50;;
29776;SDS011;16677;52.224;7.484;2023-09-18T11:02:02;3.28;;;2.22;;
29776;SDS011;16677;52.224;7.484;2023-09-18T11:04:32;2.33;;;2.00;;
29776;SDS011;16677;52.224;7.484;2023-09-18T11:09:31;3.70;;;1.67;;
29776;SDS011;16677;52.224;7.484;2023-09-18T11:12:08;5.70;;;2.40;;
29776;SDS011;16677;52.224;7.484;2023-09-18T11:14:42;6.05;;;2.30;;
29776;SDS011;16677;52.224;7.484;2023-09-18T11:17:36;2.78;;;2.30;;
29776;SDS011;16677;52.224;7.484;2023-09-18T11:20:06;4.25;;;2.50;;
29776;SDS011;16677;52.224;7.484;2023-09-18T11:25:46;4.95;;;2.40;;
29776;SDS011;16677;52.224;7.484;2023-09-18T11:28:15;3.17;;;2.40;;
29776;SDS011;16677;52.224;7.484;2023-09-18T11:30:56;4.53;;;2.47;;
29776;SDS011;16677;52.224;7.484;2023-09-18T11:35:56;2.97;;;2.40;;
29776;SDS011;16677;52.224;7.484;2023-09-18T11:38:29;3.13;;;2.50;;
29776;SDS011;16677;52.224;7.484;2023-09-18T11:40:57;4.47;;;2.80;;
29776;SDS011;16677;52.224;7.484;2023-09-18T11:43:26;6.28;;;2.67;;
29776;SDS011;16677;52.224;7.484;2023-09-18T11:45:58;3.83;;;2.60;;
29776;SDS011;16677;52.224;7.484;2023-09-18T11:48:27;5.78;;;3.13;;
29776;SDS011;16677;52.224;7.484;2023-09-18T11:50:57;4.43;;;2.60;;
29776;SDS011;16677;52.224;7.484;2023-09-18T11:53:28;4.40;;;2.83;;
29776;SDS011;16677;52.224;7.484;2023-09-18T11:55:56;4.05;;;2.58;;
29776;SDS011;16677;52.224;7.484;2023-09-18T11:58:23;3.15;;;2.60;;
29776;SDS011;16677;52.224;7.484;2023-09-18T12:00:50;2.85;;;2.42;;
29776;SDS011;16677;52.224;7.484;2023-09-18T12:03:21;4.70;;;2.60;;
29776;SDS011;16677;52.224;7.484;2023-09-18T12:06:02;3.47;;;2.35;;
29776;SDS011;16677;52.224;7.484;2023-09-18T12:08:31;2.75;;;2.08;;
29776;SDS011;16677;52.224;7.484;2023-09-18T12:10:59;2.90;;;2.05;;
29776;SDS011;16677;52.224;7.484;2023-09-18T12:13:31;5.38;;;2.85;;
29776;SDS011;16677;52.224;7.484;2023-09-18T12:15:59;3.38;;;2.50;;
29776;SDS011;16677;52.224;7.484;2023-09-18T12:18:28;5.05;;;2.50;;
29776;SDS011;16677;52.224;7.484;2023-09-18T12:23:26;3.33;;;2.60;;
29776;SDS011;16677;52.224;7.484;2023-09-18T12:25:58;5.45;;;2.65;;
29776;SDS011;16677;52.224;7.484;2023-09-18T12:28:27;3.15;;;2.78;;
29776;SDS011;16677;52.224;7.484;2023-09-18T12:30:58;3.30;;;2.55;;
29776;SDS011;16677;52.224;7.484;2023-09-18T12:33:25;3.35;;;2.38;;
29776;SDS011;16677;52.224;7.484;2023-09-18T12:35:53;5.80;;;2.80;;
29776;SDS011;16677;52.224;7.484;2023-09-18T12:38:20;3.70;;;2.58;;
29776;SDS011;16677;52.224;7.484;2023-09-18T12:40:51;4.65;;;2.53;;
29776;SDS011;16677;52.224;7.484;2023-09-18T12:43:20;3.75;;;2.65;;
29776;SDS011;16677;52.224;7.484;2023-09-18T12:45:49;3.00;;;2.45;;
29776;SDS011;16677;52.224;7.484;2023-09-18T12:48:17;3.97;;;2.45;;
29776;SDS011;16677;52.224;7.484;2023-09-18T12:50:44;5.25;;;2.75;;
29776;SDS011;16677;52.224;7.484;2023-09-18T12:53:12;4.70;;;2.50;;
29776;SDS011;16677;52.224;7.484;2023-09-18T12:55:41;6.47;;;2.55;;
29776;SDS011;16677;52.224;7.484;2023-09-18T12:58:12;5.25;;;2.70;;
29776;SDS011;16677;52.224;7.484;2023-09-18T13:00:49;7.80;;;3.25;;
29776;SDS011;16677;52.224;7.484;2023-09-18T13:03:17;3.63;;;2.30;;
29776;SDS011;16677;52.224;7.484;2023-09-18T13:05:45;4.97;;;2.95;;
29776;SDS011;16677;52.224;7.484;2023-09-18T13:08:13;3.60;;;2.70;;
29776;SDS011;16677;52.224;7.484;2023-09-18T13:10:49;2.70;;;2.35;;
29776;SDS011;16677;52.224;7.484;2023-09-18T13:13:17;3.28;;;2.33;;
29776;SDS011;16677;52.224;7.484;2023-09-18T13:15:45;4.03;;;2.50;;
29776;SDS011;16677;52.224;7.484;2023-09-18T13:18:14;3.65;;;2.35;;
29776;SDS011;16677;52.224;7.484;2023-09-18T13:20:43;5.13;;;2.47;;
29776;SDS011;16677;52.224;7.484;2023-09-18T13:23:11;4.82;;;2.47;;
29776;SDS011;16677;52.224;7.484;2023-09-18T13:25:39;4.88;;;2.60;;
29776;SDS011;16677;52.224;7.484;2023-09-18T13:28:10;4.47;;;2.40;;
29776;SDS011;16677;52.224;7.484;2023-09-18T13:30:39;6.05;;;2.53;;
29776;SDS011;16677;52.224;7.484;2023-09-18T13:33:11;3.58;;;2.40;;
29776;SDS011;16677;52.224;7.484;2023-09-18T13:35:42;5.28;;;2.58;;
29776;SDS011;16677;52.224;7.484;2023-09-18T13:38:11;5.68;;;2.30;;
29776;SDS011;16677;52.224;7.484;2023-09-18T13:40:40;3.03;;;2.40;;
29776;SDS011;16677;52.224;7.484;2023-09-18T13:43:08;4.93;;;2.50;;
29776;SDS011;16677;52.224;7.484;2023-09-18T13:45:36;2.60;;;2.17;;
29776;SDS011;16677;52.224;7.484;2023-09-18T13:48:04;5.30;;;2.30;;
29776;SDS011;16677;52.224;7.484;2023-09-18T13:50:33;4.22;;;2.40;;
29776;SDS011;16677;52.224;7.484;2023-09-18T13:53:01;4.82;;;2.30;;
29776;SDS011;16677;52.224;7.484;2023-09-18T13:55:31;3.45;;;2.55;;
29776;SDS011;16677;52.224;7.484;2023-09-18T13:57:58;3.15;;;2.20;;
29776;SDS011;16677;52.224;7.484;2023-09-18T14:00:26;4.20;;;2.35;;
29776;SDS011;16677;52.224;7.484;2023-09-18T14:02:53;4.43;;;2.63;;
29776;SDS011;16677;52.224;7.484;2023-09-18T14:05:20;3.90;;;2.17;;
29776;SDS011;16677;52.224;7.484;2023-09-18T14:07:48;5.65;;;2.15;;
29776;SDS011;16677;52.224;7.484;2023-09-18T14:10:15;5.20;;;2.50;;
29776;SDS011;16677;52.224;7.484;2023-09-18T14:12:43;3.92;;;2.17;;
29776;SDS011;16677;52.224;7.484;2023-09-18T14:15:11;5.25;;;2.45;;
29776;SDS011;16677;52.224;7.484;2023-09-18T14:17:38;7.80;;;2.55;;
29776;SDS011;16677;52.224;7.484;2023-09-18T14:20:06;4.07;;;2.22;;
29776;SDS011;16677;52.224;7.484;2023-09-18T14:22:34;3.90;;;2.10;;
29776;SDS011;16677;52.224;7.484;2023-09-18T14:25:02;4.57;;;2.03;;
29776;SDS011;16677;52.224;7.484;2023-09-18T14:27:31;2.92;;;2.03;;
29776;SDS011;16677;52.224;7.484;2023-09-18T14:29:59;3.65;;;2.10;;
29776;SDS011;16677;52.224;7.484;2023-09-18T14:32:29;2.45;;;2.22;;
29776;SDS011;16677;52.224;7.484;2023-09-18T14:34:56;4.05;;;2.40;;
29776;SDS011;16677;52.224;7.484;2023-09-18T14:37:25;5.20;;;2.00;;
29776;SDS011;16677;52.224;7.484;2023-09-18T14:39:52;3.22;;;2.10;;
29776;SDS011;16677;52.224;7.484;2023-09-18T14:42:19;3.65;;;2.10;;
29776;SDS011;16677;52.224;7.484;2023-09-18T14:44:46;4.82;;;2.00;;
29776;SDS011;16677;52.224;7.484;2023-09-18T14:47:14;4.00;;;2.33;;
29776;SDS011;16677;52.224;7.484;2023-09-18T14:49:48;3.45;;;2.67;;
29776;SDS011;16677;52.224;7.484;2023-09-18T14:52:15;2.65;;;2.13;;
29776;SDS011;16677;52.224;7.484;2023-09-18T14:54:43;3.15;;;2.20;;
29776;SDS011;16677;52.224;7.484;2023-09-18T14:57:10;3.53;;;2.20;;
29776;SDS011;16677;52.224;7.484;2023-09-18T14:59:37;3.80;;;1.90;;
29776;SDS011;16677;52.224;7.484;2023-09-18T15:02:08;4.18;;;2.03;;
29776;SDS011;16677;52.224;7.484;2023-09-18T15:04:35;2.60;;;2.03;;
29776;SDS011;16677;52.224;7.484;2023-09-18T15:07:03;2.30;;;1.90;;
29776;SDS011;16677;52.224;7.484;2023-09-18T15:09:30;4.38;;;2.00;;
29776;SDS011;16677;52.224;7.484;2023-09-18T15:11:57;5.65;;;2.28;;
29776;SDS011;16677;52.224;7.484;2023-09-18T15:14:24;5.82;;;2.40;;
29776;SDS011;16677;52.224;7.484;2023-09-18T15:16:51;2.95;;;2.00;;
29776;SDS011;16677;52.224;7.484;2023-09-18T15:19:18;3.55;;;2.00;;
29776;SDS011;16677;52.224;7.484;2023-09-18T15:21:46;2.65;;;1.70;;
29776;SDS011;16677;52.224;7.484;2023-09-18T15:24:13;3.45;;;1.92;;
29776;SDS011;16677;52.224;7.484;2023-09-18T15:26:41;2.65;;;1.83;;
29776;SDS011;16677;52.224;7.484;2023-09-18T15:29:08;2.35;;;1.65;;